createdAt,value
2018-03-30T00:02:01.808Z,79.30
2018-03-30T00:04:29.280Z,79.40
2018-03-30T00:06:56.723Z,79.40
2018-03-30T00:09:36.169Z,79.40
2018-03-30T00:12:03.654Z,79.40
2018-03-30T00:14:31.078Z,79.40
2018-03-30T00:16:58.519Z,79.40
2018-03-30T00:19:25.996Z,79.50
2018-03-30T00:21:53.424Z,79.60
2018-03-30T00:24:20.861Z,79.50
2018-03-30T00:26:49.075Z,79.90
2018-03-30T00:29:16.500Z,79.80
2018-03-30T00:31:44.706Z,80.30
2018-03-30T00:34:12.176Z,80.40
2018-03-30T00:36:39.624Z,80.60
2018-03-30T00:39:07.060Z,80.70
2018-03-30T00:41:34.552Z,81.30
2018-03-30T00:44:01.976Z,81.60
2018-03-30T00:46:29.409Z,81.80
2018-03-30T00:48:57.638Z,82.30
2018-03-30T00:51:25.060Z,82.30
2018-03-30T00:53:52.488Z,82.60
2018-03-30T00:56:19.932Z,82.90
2018-03-30T00:58:47.357Z,83.10
2018-03-30T01:01:14.793Z,83.30
2018-03-30T01:03:42.273Z,83.40
2018-03-30T01:06:09.728Z,83.60
2018-03-30T01:08:37.164Z,84.00
2018-03-30T01:11:09.414Z,84.20
2018-03-30T01:13:37.608Z,84.90
2018-03-30T01:16:05.042Z,84.80
2018-03-30T01:18:33.244Z,85.70
2018-03-30T01:21:00.674Z,85.60
2018-03-30T01:23:28.868Z,86.20
2018-03-30T01:25:56.312Z,86.10
2018-03-30T01:28:24.524Z,86.90
2018-03-30T01:30:51.962Z,86.80
2018-03-30T01:33:19.455Z,87.00
2018-03-30T01:35:46.872Z,87.30
2018-03-30T01:38:14.353Z,87.50
2018-03-30T01:40:41.788Z,87.60
2018-03-30T01:43:09.224Z,87.70
2018-03-30T01:45:37.426Z,88.00
2018-03-30T01:48:04.909Z,88.10
2018-03-30T01:50:32.352Z,88.20
2018-03-30T01:52:59.785Z,88.50
2018-03-30T01:55:27.220Z,88.60
2018-03-30T01:57:55.426Z,88.90
2018-03-30T02:00:22.850Z,88.90
2018-03-30T02:02:51.060Z,89.20
2018-03-30T02:05:18.488Z,89.20
2018-03-30T02:07:46.684Z,89.50
2018-03-30T02:10:14.130Z,89.50
2018-03-30T02:12:41.620Z,89.60
2018-03-30T02:15:09.055Z,89.90
2018-03-30T02:17:36.536Z,90.00
2018-03-30T02:20:03.984Z,90.10
2018-03-30T02:22:31.445Z,90.10
2018-03-30T02:24:58.891Z,90.20
2018-03-30T02:27:26.369Z,90.30
2018-03-30T02:29:53.820Z,90.40
2018-03-30T02:32:21.268Z,90.40
2018-03-30T02:34:48.692Z,90.50
2018-03-30T02:37:16.913Z,90.60
2018-03-30T02:39:44.360Z,90.50
2018-03-30T02:42:11.805Z,90.60
2018-03-30T02:44:39.224Z,90.50
2018-03-30T02:47:06.682Z,90.60
2018-03-30T02:49:34.192Z,90.60
2018-03-30T02:52:01.656Z,90.70
2018-03-30T02:54:29.100Z,90.70
2018-03-30T02:56:56.533Z,90.70
2018-03-30T02:59:24.734Z,90.80
2018-03-30T03:01:52.177Z,90.80
2018-03-30T03:04:19.653Z,90.80
2018-03-30T03:06:47.085Z,90.90
2018-03-30T03:09:14.531Z,91.00
2018-03-30T03:11:42.723Z,91.00
2018-03-30T03:14:10.200Z,91.00
2018-03-30T03:16:37.657Z,91.10
2018-03-30T03:19:05.096Z,91.10
2018-03-30T03:21:32.587Z,91.10
2018-03-30T03:24:00.137Z,91.20
2018-03-30T03:26:27.560Z,91.20
2018-03-30T03:28:54.989Z,91.30
2018-03-30T03:31:22.433Z,91.40
2018-03-30T03:33:49.868Z,91.50
2018-03-30T03:36:17.308Z,91.50
2018-03-30T03:38:44.752Z,91.60
2018-03-30T03:41:12.233Z,91.50
2018-03-30T03:43:39.668Z,91.60
2018-03-30T03:46:07.104Z,91.70
2018-03-30T03:48:35.312Z,91.70
2018-03-30T03:51:02.734Z,91.70
2018-03-30T03:53:30.943Z,91.80
2018-03-30T03:55:58.374Z,91.80
2018-03-30T03:58:26.574Z,91.90
2018-03-30T04:00:54.028Z,91.90
2018-03-30T04:03:21.448Z,91.90
2018-03-30T04:05:49.648Z,92.00
2018-03-30T04:08:17.092Z,91.90
2018-03-30T04:10:44.596Z,92.00
2018-03-30T04:13:12.044Z,92.00
2018-03-30T04:15:39.494Z,92.10
2018-03-30T04:18:06.960Z,92.10
2018-03-30T04:20:34.420Z,92.20
2018-03-30T04:23:01.867Z,92.20
2018-03-30T04:25:29.326Z,92.30
2018-03-30T04:27:56.740Z,92.30
2018-03-30T04:30:24.956Z,92.30
2018-03-30T04:32:52.384Z,92.30
2018-03-30T04:35:19.892Z,92.30
2018-03-30T04:37:47.327Z,92.30
2018-03-30T04:40:14.792Z,92.30
2018-03-30T04:42:42.224Z,92.40
2018-03-30T04:45:09.673Z,92.40
2018-03-30T04:47:37.871Z,92.40
2018-03-30T04:50:05.328Z,92.40
2018-03-30T04:52:33.605Z,92.50
2018-03-30T04:55:01.044Z,92.50
2018-03-30T04:57:28.524Z,92.50
2018-03-30T04:59:55.992Z,92.50
2018-03-30T05:02:23.440Z,92.50
2018-03-30T05:04:50.902Z,92.50
2018-03-30T05:07:18.343Z,92.50
2018-03-30T05:09:45.774Z,92.50
2018-03-30T05:12:13.964Z,92.60
2018-03-30T05:14:41.445Z,92.50
2018-03-30T05:17:08.884Z,92.60
2018-03-30T05:19:36.365Z,92.60
2018-03-30T05:22:03.857Z,92.50
2018-03-30T05:24:31.374Z,92.60
2018-03-30T05:26:58.841Z,92.60
2018-03-30T05:29:26.284Z,92.60
2018-03-30T05:31:53.759Z,92.60
2018-03-30T05:34:21.203Z,92.60
2018-03-30T05:36:48.645Z,92.60
2018-03-30T05:39:16.077Z,92.60
2018-03-30T05:41:44.296Z,92.70
2018-03-30T05:44:11.753Z,92.60
2018-03-30T05:46:39.204Z,92.70
2018-03-30T05:49:06.640Z,92.70
2018-03-30T05:51:34.090Z,92.70
2018-03-30T05:54:02.288Z,92.70
2018-03-30T05:56:29.750Z,92.70
2018-03-30T05:58:57.212Z,92.70
2018-03-30T06:01:24.668Z,92.70
2018-03-30T06:03:52.088Z,92.70
2018-03-30T06:06:19.581Z,92.70
2018-03-30T06:08:47.017Z,92.70
2018-03-30T06:11:14.464Z,92.70
2018-03-30T06:13:41.904Z,92.70
2018-03-30T06:16:10.132Z,92.70
2018-03-30T06:18:37.573Z,92.70
2018-03-30T06:21:05.044Z,92.70
2018-03-30T06:23:32.490Z,92.80
2018-03-30T06:25:59.939Z,92.70
2018-03-30T06:28:27.378Z,92.80
2018-03-30T06:30:55.593Z,92.80
2018-03-30T06:33:23.057Z,92.80
2018-03-30T06:35:50.715Z,92.80
2018-03-30T06:38:18.194Z,92.80
2018-03-30T06:40:45.577Z,92.80
2018-03-30T06:43:13.784Z,92.70
2018-03-30T06:45:41.210Z,92.70
2018-03-30T06:48:09.404Z,93.00
2018-03-30T06:50:36.840Z,92.70
2018-03-30T06:53:05.032Z,92.70
2018-03-30T06:55:32.464Z,92.70
2018-03-30T06:58:00.676Z,92.70
2018-03-30T07:00:28.146Z,92.70
2018-03-30T07:02:55.581Z,92.70
2018-03-30T07:05:23.022Z,92.70
2018-03-30T07:07:51.221Z,92.60
2018-03-30T07:10:18.656Z,92.60
2018-03-30T07:12:46.860Z,92.50
2018-03-30T07:15:14.329Z,92.50
2018-03-30T07:17:41.762Z,92.50
2018-03-30T07:20:09.207Z,92.40
2018-03-30T07:22:36.650Z,92.30
2018-03-30T07:25:04.067Z,92.30
2018-03-30T07:27:31.597Z,92.20
2018-03-30T07:29:59.060Z,92.20
2018-03-30T07:32:26.480Z,91.90
2018-03-30T07:34:54.683Z,91.70
2018-03-30T07:37:22.153Z,91.70
2018-03-30T07:39:49.600Z,91.60
2018-03-30T07:42:17.046Z,91.60
2018-03-30T07:44:44.520Z,91.40
2018-03-30T07:47:11.953Z,91.30
2018-03-30T07:49:39.444Z,91.20
2018-03-30T07:52:07.815Z,90.90
2018-03-30T07:54:35.276Z,90.80
2018-03-30T07:57:02.717Z,90.60
2018-03-30T07:59:30.206Z,90.40
2018-03-30T08:01:57.620Z,90.30
2018-03-30T08:04:25.101Z,90.10
2018-03-30T08:06:52.581Z,90.00
2018-03-30T08:09:20.020Z,90.00
2018-03-30T08:11:47.459Z,89.50
2018-03-30T08:14:14.940Z,89.40
2018-03-30T08:16:42.375Z,89.10
2018-03-30T08:19:09.817Z,88.60
2018-03-30T08:21:37.234Z,88.40
2018-03-30T08:24:04.677Z,88.20
2018-03-30T08:26:32.174Z,87.60
2018-03-30T08:28:59.583Z,86.90
2018-03-30T08:31:27.011Z,86.80
2018-03-30T08:33:54.453Z,86.10
2018-03-30T08:36:22.650Z,85.60
2018-03-30T08:38:50.089Z,85.60
2018-03-30T08:41:17.584Z,85.20
2018-03-30T08:43:45.033Z,85.10
2018-03-30T08:46:12.457Z,85.20
2018-03-30T08:48:39.949Z,85.20
2018-03-30T08:51:07.414Z,84.60
2018-03-30T08:53:35.392Z,84.30
2018-03-30T08:56:03.032Z,84.30
2018-03-30T08:58:30.460Z,84.20
2018-03-30T09:00:57.948Z,84.20
2018-03-30T09:03:25.414Z,83.80
2018-03-30T09:05:52.869Z,83.40
2018-03-30T09:08:20.327Z,83.50
2018-03-30T09:10:47.776Z,83.30
2018-03-30T09:13:15.208Z,83.10
2018-03-30T09:15:42.720Z,82.80
2018-03-30T09:18:10.256Z,81.50
2018-03-30T09:20:37.708Z,81.40
2018-03-30T09:23:05.146Z,80.80
2018-03-30T09:25:32.625Z,80.40
2018-03-30T09:28:00.086Z,79.80
2018-03-30T09:30:27.564Z,80.00
2018-03-30T09:32:55.101Z,79.60
2018-03-30T09:35:22.562Z,79.60
2018-03-30T09:37:50.028Z,79.10
2018-03-30T09:40:17.460Z,78.40
2018-03-30T09:42:44.954Z,77.90
2018-03-30T09:45:13.152Z,77.60
2018-03-30T09:47:41.366Z,76.30
2018-03-30T09:50:08.792Z,76.30
2018-03-30T09:52:37.015Z,75.80
2018-03-30T09:55:04.477Z,76.50
2018-03-30T09:57:31.936Z,75.40
2018-03-30T09:59:59.365Z,74.60
2018-03-30T10:02:28.721Z,74.00
2018-03-30T10:05:01.001Z,73.50
2018-03-30T10:07:29.208Z,72.80
2018-03-30T10:09:56.635Z,72.80
2018-03-30T10:12:24.828Z,72.10
2018-03-30T10:14:52.273Z,72.10
2018-03-30T10:17:20.473Z,72.10
2018-03-30T10:19:47.981Z,72.10
2018-03-30T10:22:15.420Z,71.60
2018-03-30T10:24:42.853Z,71.40
2018-03-30T10:27:10.316Z,70.70
2018-03-30T10:29:37.763Z,70.70
2018-03-30T10:32:05.188Z,69.30
2018-03-30T10:34:33.618Z,68.70
2018-03-30T10:37:01.058Z,67.70
2018-03-30T10:39:28.487Z,68.00
2018-03-30T10:41:56.697Z,68.00
2018-03-30T10:44:24.163Z,68.00
2018-03-30T10:46:51.580Z,67.00
2018-03-30T10:49:19.008Z,66.60
2018-03-30T10:51:46.524Z,66.00
2018-03-30T10:54:13.981Z,66.00
2018-03-30T10:56:41.454Z,65.00
2018-03-30T10:59:08.884Z,65.00
2018-03-30T11:01:36.317Z,65.40
2018-03-30T11:04:04.524Z,65.20
2018-03-30T11:06:31.957Z,65.30
2018-03-30T11:08:59.388Z,65.00
2018-03-30T11:11:27.581Z,64.70
2018-03-30T11:13:56.780Z,63.30
2018-03-30T11:16:24.276Z,63.20
2018-03-30T11:18:51.706Z,62.40
2018-03-30T11:21:19.148Z,62.00
2018-03-30T11:23:47.357Z,61.00
2018-03-30T11:26:14.820Z,61.00
2018-03-30T11:28:42.252Z,60.80
2018-03-30T11:31:09.680Z,59.70
2018-03-30T11:33:37.877Z,60.30
2018-03-30T11:36:06.133Z,59.80
2018-03-30T11:38:33.529Z,59.80
2018-03-30T11:41:01.012Z,59.80
2018-03-30T11:43:28.552Z,59.80
2018-03-30T11:45:55.984Z,59.60
2018-03-30T11:48:23.424Z,59.70
2018-03-30T11:50:51.634Z,59.80
2018-03-30T11:53:19.060Z,59.80
2018-03-30T11:55:47.256Z,58.90
2018-03-30T11:58:14.702Z,58.90
2018-03-30T12:00:42.129Z,59.10
2018-03-30T12:03:10.538Z,59.00
2018-03-30T12:05:38.720Z,58.80
2018-03-30T12:08:06.171Z,58.80
2018-03-30T12:10:33.600Z,57.80
2018-03-30T12:13:01.046Z,57.20
2018-03-30T12:15:28.472Z,56.90
2018-03-30T12:17:55.904Z,56.40
2018-03-30T12:20:23.358Z,56.30
2018-03-30T12:22:50.837Z,56.20
2018-03-30T12:25:18.275Z,56.00
2018-03-30T12:27:45.718Z,56.10
2018-03-30T12:30:13.932Z,55.20
2018-03-30T12:32:41.365Z,55.10
2018-03-30T12:35:08.860Z,54.10
2018-03-30T12:37:36.300Z,53.50
2018-03-30T12:40:03.738Z,54.30
2018-03-30T12:42:31.214Z,53.60
2018-03-30T12:44:58.645Z,53.00
2018-03-30T12:47:26.077Z,52.70
2018-03-30T12:49:54.397Z,53.50
2018-03-30T12:52:21.808Z,53.50
2018-03-30T12:54:49.228Z,52.50
2018-03-30T12:57:16.775Z,51.00
2018-03-30T12:59:44.214Z,50.80
2018-03-30T13:02:11.705Z,50.00
2018-03-30T13:04:39.253Z,49.30
2018-03-30T13:07:06.690Z,49.40
2018-03-30T13:09:34.116Z,49.90
2018-03-30T13:12:02.323Z,49.70
2018-03-30T13:14:29.797Z,49.70
2018-03-30T13:16:57.258Z,49.70
2018-03-30T13:19:24.693Z,49.30
2018-03-30T13:21:52.168Z,48.80
2018-03-30T13:24:19.596Z,48.60
2018-03-30T13:26:47.044Z,48.50
2018-03-30T13:29:15.260Z,47.90
2018-03-30T13:31:42.720Z,47.90
2018-03-30T13:34:10.158Z,47.60
2018-03-30T13:36:37.588Z,46.90
2018-03-30T13:39:05.805Z,45.40
2018-03-30T13:41:33.240Z,45.30
2018-03-30T13:44:00.720Z,45.20
2018-03-30T13:46:28.177Z,45.30
2018-03-30T13:48:55.633Z,44.70
2018-03-30T13:51:30.564Z,44.60
2018-03-30T13:54:15.674Z,44.70
2018-03-30T13:57:05.623Z,45.20
2018-03-30T13:59:33.062Z,44.80
2018-03-30T14:02:04.001Z,44.80
2018-03-30T14:04:51.033Z,44.90
2018-03-30T14:07:18.461Z,44.90
2018-03-30T14:09:45.953Z,45.00
2018-03-30T14:12:18.133Z,44.90
2018-03-30T14:14:45.560Z,45.00
2018-03-30T14:17:28.701Z,44.50
2018-03-30T14:19:58.657Z,44.50
2018-03-30T14:22:26.885Z,44.90
2018-03-30T14:24:55.134Z,44.20
2018-03-30T14:27:43.042Z,43.60
2018-03-30T14:30:12.012Z,43.40
2018-03-30T14:32:49.669Z,43.20
2018-03-30T14:35:22.853Z,43.10
2018-03-30T14:38:05.924Z,43.40
2018-03-30T14:40:35.816Z,43.30
2018-03-30T14:45:59.512Z,41.70
2018-03-30T14:48:44.789Z,42.70
2018-03-30T14:51:20.988Z,41.90
2018-03-30T14:53:50.289Z,42.00
2018-03-30T14:56:22.166Z,42.40
2018-03-30T14:58:54.060Z,42.10
2018-03-30T15:01:23.430Z,42.10
2018-03-30T15:03:57.159Z,42.80
2018-03-30T15:06:24.668Z,42.80
2018-03-30T15:08:54.033Z,42.80
2018-03-30T15:11:43.065Z,42.80
2018-03-30T15:14:13.904Z,42.60
2018-03-30T15:16:57.020Z,42.60
2018-03-30T15:19:27.712Z,42.50
2018-03-30T15:22:06.446Z,42.50
2018-03-30T15:24:39.337Z,41.90
2018-03-30T15:27:12.177Z,41.70
2018-03-30T15:29:42.420Z,41.90
2018-03-30T15:32:15.695Z,42.10
2018-03-30T15:34:44.853Z,42.40
2018-03-30T15:37:15.268Z,42.40
2018-03-30T15:39:47.976Z,42.40
2018-03-30T15:42:18.828Z,42.40
2018-03-30T15:44:51.673Z,42.40
2018-03-30T15:47:20.744Z,42.80
2018-03-30T15:49:50.929Z,42.70
2018-03-30T15:52:28.361Z,43.00
2018-03-30T15:54:56.567Z,42.90
2018-03-30T15:57:24.776Z,42.90
2018-03-30T15:59:52.229Z,42.70
2018-03-30T16:02:19.724Z,43.10
2018-03-30T16:04:47.144Z,44.20
2018-03-30T16:07:14.847Z,43.90
2018-03-30T16:09:56.908Z,44.10
2018-03-30T16:12:24.408Z,44.20
2018-03-30T16:14:51.829Z,44.30
2018-03-30T16:17:19.258Z,44.30
2018-03-30T16:19:46.219Z,44.20
2018-03-30T16:22:13.163Z,44.20
2018-03-30T16:24:40.110Z,44.60
2018-03-30T16:27:07.065Z,44.60
2018-03-30T16:29:34.054Z,44.60
2018-03-30T16:32:00.955Z,44.50
2018-03-30T16:34:28.000Z,44.40
2018-03-30T16:36:54.997Z,44.80
2018-03-30T16:39:21.881Z,45.10
2018-03-30T16:41:48.844Z,45.20
2018-03-30T16:44:15.783Z,45.50
2018-03-30T16:46:42.832Z,45.60
2018-03-30T16:49:09.786Z,46.00
2018-03-30T16:51:36.723Z,46.70
2018-03-30T16:54:03.861Z,46.20
2018-03-30T16:56:31.632Z,46.80
2018-03-30T16:58:58.576Z,46.70
2018-03-30T17:01:25.532Z,46.70
2018-03-30T17:03:52.578Z,46.80
2018-03-30T17:06:19.551Z,46.90
2018-03-30T17:08:46.577Z,46.90
2018-03-30T17:11:13.533Z,47.00
2018-03-30T17:13:40.553Z,47.20
2018-03-30T17:16:07.512Z,47.40
2018-03-30T17:18:34.444Z,47.60
2018-03-30T17:21:01.400Z,47.50
2018-03-30T17:23:28.333Z,47.70
2018-03-30T17:25:55.310Z,47.90
2018-03-30T17:28:22.245Z,48.00
2018-03-30T17:30:49.180Z,48.20
2018-03-30T17:33:16.134Z,48.60
2018-03-30T17:35:43.128Z,48.70
2018-03-30T17:38:10.837Z,49.20
2018-03-30T17:40:37.788Z,49.20
2018-03-30T17:43:04.745Z,49.50
2018-03-30T17:45:31.784Z,49.50
2018-03-30T17:47:58.750Z,49.80
2018-03-30T17:50:25.729Z,49.90
2018-03-30T17:52:52.690Z,50.10
2018-03-30T17:55:19.766Z,50.10
2018-03-30T17:57:46.780Z,50.30
2018-03-30T18:00:14.492Z,50.60
2018-03-30T18:02:41.451Z,50.60
2018-03-30T18:05:08.385Z,50.80
2018-03-30T18:07:35.377Z,51.00
2018-03-30T18:10:02.331Z,51.20
2018-03-30T18:12:29.301Z,51.40
2018-03-30T18:14:56.378Z,51.50
2018-03-30T18:17:23.402Z,51.90
2018-03-30T18:19:50.323Z,52.10
2018-03-30T18:22:17.281Z,52.20
2018-03-30T18:24:44.230Z,52.30
2018-03-30T18:27:11.277Z,52.50
2018-03-30T18:29:38.217Z,52.70
2018-03-30T18:32:05.173Z,52.70
2018-03-30T18:34:32.106Z,53.00
2018-03-30T18:36:59.068Z,53.10
2018-03-30T18:39:26.108Z,53.20
2018-03-30T18:41:53.056Z,53.20
2018-03-30T18:44:19.993Z,53.40
2018-03-30T18:46:46.952Z,53.50
2018-03-30T18:49:13.992Z,53.80
2018-03-30T18:51:40.941Z,53.80
2018-03-30T18:54:07.896Z,53.90
2018-03-30T18:56:34.840Z,54.10
2018-03-30T18:59:01.784Z,54.20
2018-03-30T19:01:28.781Z,54.40
2018-03-30T19:03:55.781Z,54.50
2018-03-30T19:06:22.700Z,54.70
2018-03-30T19:08:49.670Z,54.80
2018-03-30T19:11:16.596Z,55.00
2018-03-30T19:13:43.572Z,55.20
2018-03-30T19:16:10.529Z,55.40
2018-03-30T19:18:37.465Z,55.70
2018-03-30T19:21:04.484Z,55.90
2018-03-30T19:23:31.442Z,56.00
2018-03-30T19:25:58.466Z,56.10
2018-03-30T19:28:25.408Z,56.20
2018-03-30T19:30:52.361Z,56.30
2018-03-30T19:33:19.298Z,56.50
2018-03-30T19:35:46.308Z,56.50
2018-03-30T19:38:13.208Z,56.50
2018-03-30T19:40:40.152Z,56.50
2018-03-30T19:43:07.194Z,56.60
2018-03-30T19:45:34.232Z,56.60
2018-03-30T19:48:01.170Z,56.70
2018-03-30T19:50:28.140Z,56.90
2018-03-30T19:52:55.272Z,57.00
2018-03-30T19:55:22.226Z,57.20
2018-03-30T19:57:49.277Z,57.20
2018-03-30T20:00:16.241Z,57.20
2018-03-30T20:02:43.185Z,57.30
2018-03-30T20:05:10.117Z,57.40
2018-03-30T20:07:37.073Z,57.50
2018-03-30T20:10:04.026Z,57.60
2018-03-30T20:12:32.577Z,58.60
2018-03-30T20:14:59.632Z,58.50
2018-03-30T20:17:26.681Z,60.10
2018-03-30T20:19:53.721Z,62.20
2018-03-30T20:22:20.668Z,64.10
2018-03-30T20:24:47.723Z,65.60
2018-03-30T20:27:14.672Z,66.50
2018-03-30T20:29:41.722Z,67.60
2018-03-30T20:32:08.661Z,69.00
2018-03-30T20:34:35.600Z,70.00
2018-03-30T20:37:02.552Z,71.10
2018-03-30T20:39:29.495Z,72.10
2018-03-30T20:41:57.420Z,72.90
2018-03-30T20:44:26.619Z,74.50
2018-03-30T20:46:54.309Z,75.20
2018-03-30T20:49:21.245Z,75.20
2018-03-30T20:51:48.195Z,75.70
2018-03-30T20:54:15.463Z,76.10
2018-03-30T20:56:42.404Z,76.40
2018-03-30T20:59:09.451Z,77.80
2018-03-30T21:01:36.380Z,78.20
2018-03-30T21:04:03.316Z,78.40
2018-03-30T21:06:30.275Z,78.70
2018-03-30T21:08:57.219Z,79.10
2018-03-30T21:11:24.182Z,79.60
2018-03-30T21:13:51.141Z,80.10
2018-03-30T21:16:18.076Z,80.40
2018-03-30T21:18:45.012Z,80.70
2018-03-30T21:21:11.957Z,81.00
2018-03-30T21:23:38.903Z,81.30
2018-03-30T21:26:05.853Z,81.40
2018-03-30T21:28:32.797Z,81.60
2018-03-30T21:30:59.739Z,81.80
2018-03-30T21:33:26.697Z,82.00
2018-03-30T21:35:53.650Z,82.10
2018-03-30T21:38:20.584Z,82.20
2018-03-30T21:40:47.523Z,82.30
2018-03-30T21:43:14.468Z,82.60
2018-03-30T21:45:41.410Z,82.70
2018-03-30T21:48:08.354Z,83.00
2018-03-30T21:50:35.299Z,83.40
2018-03-30T21:53:02.251Z,83.70
2018-03-30T21:55:29.181Z,83.90
2018-03-30T21:57:56.144Z,83.90
2018-03-30T22:00:23.085Z,84.10
2018-03-30T22:02:50.033Z,84.10
2018-03-30T22:05:17.087Z,84.30
2018-03-30T22:07:44.020Z,84.70
2018-03-30T22:10:10.972Z,85.10
2018-03-30T22:12:37.920Z,85.20
2018-03-30T22:15:04.855Z,85.50
2018-03-30T22:17:31.790Z,85.60
2018-03-30T22:19:58.864Z,85.80
2018-03-30T22:22:25.903Z,86.00
2018-03-30T22:24:52.936Z,86.20
2018-03-30T22:27:19.861Z,86.40
2018-03-30T22:29:46.796Z,86.80
2018-03-30T22:32:14.508Z,87.70
2018-03-30T22:34:41.549Z,87.10
2018-03-30T22:37:08.689Z,87.20
2018-03-30T22:39:35.630Z,87.30
2018-03-30T22:42:02.580Z,87.40
2018-03-30T22:44:29.536Z,87.50
2018-03-30T22:46:56.579Z,87.60
2018-03-30T22:49:23.580Z,87.50
2018-03-30T22:51:51.397Z,87.40
2018-03-30T22:54:18.349Z,87.50
2018-03-30T22:56:45.296Z,87.40
2018-03-30T22:59:12.232Z,87.60
2018-03-30T23:01:39.279Z,87.70
2018-03-30T23:04:06.329Z,87.90
2018-03-30T23:06:33.378Z,87.90
2018-03-30T23:09:00.322Z,87.90
2018-03-30T23:11:27.268Z,87.90
2018-03-30T23:13:54.264Z,87.90
2018-03-30T23:16:22.074Z,87.90
2018-03-30T23:18:49.133Z,87.90
2018-03-30T23:21:16.057Z,87.80
2018-03-30T23:23:43.020Z,87.80
2018-03-30T23:26:10.065Z,87.70
2018-03-30T23:28:36.996Z,87.70
2018-03-30T23:31:03.948Z,87.70
2018-03-30T23:33:30.985Z,87.60
2018-03-30T23:35:57.904Z,87.60
2018-03-30T23:38:25.615Z,87.70
2018-03-30T23:40:52.553Z,87.70
2018-03-30T23:43:19.488Z,87.80
2018-03-30T23:45:46.426Z,87.90
2018-03-30T23:48:13.500Z,88.00
2018-03-30T23:50:40.444Z,88.80
2018-03-30T23:53:07.385Z,88.10
2018-03-30T23:55:34.331Z,88.20
2018-03-30T23:58:01.365Z,88.20
